Time;durP1;ratioP1;P1;durP2;ratioP2;P2;SDS_P1;SDS_P2;PMS_P1;PMS_P2;Temp;Humidity;BMP_temperature;BMP_pressure;BME280_temperature;BME280_humidity;BME280_pressure;Samples;Min_cycle;Max_cycle;Signal;HPM_P1;HPM_P2
2022/02/25 00:01:29;;;;;;;31.08;17.00;;;;;;;;;;10289643;28;20163;-56
2022/02/25 00:06:28;;;;;;;17.02;11.63;;;;;;;;;;10276389;28;20068;-56
2022/02/25 00:11:28;;;;;;;12.90;9.18;;;;;;;;;;10301150;28;20048;-54
2022/02/25 00:16:26;;;;;;;9.30;7.00;;;;;;;;;;10312188;28;20124;-56
2022/02/25 00:21:24;;;;;;;12.63;7.90;;;;;;;;;;10276423;28;20068;-56
2022/02/25 00:26:23;;;;;;;11.27;7.80;;;;;;;;;;10277894;28;20152;-56
2022/02/25 00:31:23;;;;;;;15.45;11.15;;;;;;;;;;10277810;28;20061;-54
2022/02/25 00:36:21;;;;;;;19.27;14.57;;;;;;;;;;10275126;28;20076;-56
2022/02/25 00:41:20;;;;;;;25.80;14.82;;;;;;;;;;10271640;28;20057;-56
2022/02/25 00:46:22;;;;;;;21.17;16.70;;;;;;;;;;10273131;28;20073;-55
2022/02/25 00:51:23;;;;;;;20.55;13.93;;;;;;;;;;10271612;28;20068;-56
2022/02/25 00:56:24;;;;;;;20.23;15.60;;;;;;;;;;10272834;28;20037;-54
2022/02/25 01:01:27;;;;;;;38.20;25.35;;;;;;;;;;10273207;28;20473;-54
2022/02/25 01:06:28;;;;;;;52.85;31.50;;;;;;;;;;10275362;28;20517;-51
2022/02/25 01:11:28;;;;;;;41.70;28.20;;;;;;;;;;10276408;28;20083;-51
2022/02/25 01:16:28;;;;;;;46.40;30.83;;;;;;;;;;10273232;28;20147;-53
2022/02/25 01:21:26;;;;;;;40.15;26.15;;;;;;;;;;10270930;28;20080;-55
2022/02/25 01:26:24;;;;;;;32.10;22.17;;;;;;;;;;10275498;28;20072;-55
2022/02/25 01:31:23;;;;;;;32.78;20.80;;;;;;;;;;10271544;28;20909;-55
2022/02/25 01:36:23;;;;;;;31.73;20.48;;;;;;;;;;10272586;28;20070;-53
2022/02/25 01:41:21;;;;;;;33.40;20.98;;;;;;;;;;10275205;28;20103;-55
2022/02/25 01:46:19;;;;;;;35.92;25.08;;;;;;;;;;10274417;28;20072;-53
2022/02/25 01:51:18;;;;;;;38.65;25.63;;;;;;;;;;10271888;28;20065;-55
2022/02/25 01:56:18;;;;;;;39.20;27.30;;;;;;;;;;10267855;28;20068;-54
2022/02/25 02:01:18;;;;;;;45.90;26.25;;;;;;;;;;10269461;28;20517;-50
2022/02/25 02:06:17;;;;;;;51.38;28.77;;;;;;;;;;10268904;28;20525;-55
2022/02/25 02:11:27;;;;;;;41.22;28.42;;;;;;;;;;10274043;28;20135;-55
2022/02/25 02:16:26;;;;;;;37.90;27.05;;;;;;;;;;10273968;28;20119;-54
2022/02/25 02:21:25;;;;;;;35.63;23.70;;;;;;;;;;10271181;28;20069;-55
2022/02/25 02:26:27;;;;;;;35.90;23.25;;;;;;;;;;10266297;28;20073;-53
2022/02/25 02:31:27;;;;;;;31.67;21.85;;;;;;;;;;10268120;28;20473;-53
2022/02/25 02:36:26;;;;;;;36.80;24.17;;;;;;;;;;10271656;28;20084;-54
2022/02/25 02:41:24;;;;;;;20.48;14.02;;;;;;;;;;10273755;28;20069;-55
2022/02/25 02:46:24;;;;;;;20.58;12.20;;;;;;;;;;10263411;28;20155;-52
2022/02/25 02:51:22;;;;;;;17.08;11.73;;;;;;;;;;10266414;28;20541;-53
2022/02/25 02:56:20;;;;;;;22.83;14.23;;;;;;;;;;10265781;28;20077;-55
2022/02/25 03:01:19;;;;;;;25.23;16.92;;;;;;;;;;10268181;28;20086;-54
2022/02/25 03:06:19;;;;;;;30.00;17.05;;;;;;;;;;10268226;28;20081;-55
2022/02/25 03:11:17;;;;;;;17.08;13.93;;;;;;;;;;10268227;28;20167;-55
2022/02/25 03:16:17;;;;;;;24.73;18.35;;;;;;;;;;10266186;28;20203;-57
2022/02/25 03:21:15;;;;;;;23.83;17.10;;;;;;;;;;10276993;28;20458;-55
2022/02/25 03:26:15;;;;;;;20.23;15.13;;;;;;;;;;10280333;28;20088;-54
2022/02/25 03:31:13;;;;;;;23.48;14.05;;;;;;;;;;10278062;28;20076;-56
2022/02/25 03:36:11;;;;;;;22.80;16.52;;;;;;;;;;10266975;28;20509;-56
2022/02/25 03:41:10;;;;;;;20.35;14.75;;;;;;;;;;10269310;28;20445;-56
2022/02/25 03:46:10;;;;;;;19.70;14.65;;;;;;;;;;10290897;28;20060;-55
2022/02/25 03:51:08;;;;;;;21.15;14.52;;;;;;;;;;10289186;28;20482;-55
2022/02/25 03:56:06;;;;;;;17.80;13.10;;;;;;;;;;10314300;28;20072;-55
2022/02/25 04:01:05;;;;;;;13.32;11.23;;;;;;;;;;10283108;28;20040;-55
2022/02/25 04:06:05;;;;;;;17.52;15.80;;;;;;;;;;10285312;28;20053;-55
2022/02/25 04:11:03;;;;;;;14.10;10.90;;;;;;;;;;10274124;28;20502;-55
2022/02/25 04:16:01;;;;;;;19.02;12.20;;;;;;;;;;10278327;28;20088;-54
2022/02/25 04:21:00;;;;;;;15.30;11.32;;;;;;;;;;10268842;28;20418;-55
2022/02/25 04:26:01;;;;;;;19.33;11.05;;;;;;;;;;10294613;28;20057;-56
2022/02/25 04:31:01;;;;;;;22.88;15.13;;;;;;;;;;10281374;28;20175;-55
2022/02/25 04:35:59;;;;;;;17.45;13.90;;;;;;;;;;10316707;28;20486;-53
2022/02/25 04:41:01;;;;;;;16.30;10.60;;;;;;;;;;10302559;28;20489;-53
2022/02/25 04:46:01;;;;;;;14.23;10.75;;;;;;;;;;10276072;28;20080;-55
2022/02/25 04:51:00;;;;;;;13.80;12.32;;;;;;;;;;10271700;28;20072;-56
2022/02/25 04:55:58;;;;;;;35.45;22.80;;;;;;;;;;10266101;28;20807;-56
2022/02/25 05:00:56;;;;;;;21.30;14.38;;;;;;;;;;10265837;28;20167;-57
2022/02/25 05:05:57;;;;;;;41.30;26.83;;;;;;;;;;10269668;28;20092;-55
2022/02/25 05:10:56;;;;;;;19.92;14.95;;;;;;;;;;10269684;28;20104;-54
2022/02/25 05:21:11;;;;;;;18.40;12.93;;;;;;;;;;10262435;28;20069;-56
2022/02/25 05:26:09;;;;;;;13.27;11.10;;;;;;;;;;10254245;28;20544;-55
2022/02/25 05:31:07;;;;;;;16.92;12.38;;;;;;;;;;10254306;28;20075;-56
2022/02/25 05:36:06;;;;;;;65.93;35.90;;;;;;;;;;10248676;28;20611;-56
2022/02/25 05:41:06;;;;;;;20.98;17.40;;;;;;;;;;10257629;28;20056;-55
2022/02/25 05:46:04;;;;;;;22.17;15.10;;;;;;;;;;10260648;28;20463;-54
2022/02/25 05:51:02;;;;;;;14.60;10.68;;;;;;;;;;10267618;28;20068;-56
2022/02/25 05:56:01;;;;;;;51.70;37.47;;;;;;;;;;10264262;28;20168;-58
2022/02/25 06:01:00;;;;;;;15.45;10.98;;;;;;;;;;10243780;28;20072;-56
2022/02/25 06:05:59;;;;;;;13.27;9.88;;;;;;;;;;10263422;28;20053;-54
2022/02/25 06:10:57;;;;;;;28.70;18.95;;;;;;;;;;10268224;28;20080;-56
2022/02/25 06:15:56;;;;;;;14.20;10.75;;;;;;;;;;10269675;28;20065;-55
2022/02/25 06:20:56;;;;;;;14.50;10.60;;;;;;;;;;10265823;28;20072;-53
2022/02/25 06:25:54;;;;;;;50.38;25.98;;;;;;;;;;10279058;28;20072;-56
2022/02/25 06:30:53;;;;;;;18.83;11.88;;;;;;;;;;10255463;28;20087;-57
2022/02/25 06:35:53;;;;;;;18.20;15.68;;;;;;;;;;10245571;28;20073;-54
2022/02/25 06:40:53;;;;;;;17.73;14.15;;;;;;;;;;10242780;28;20119;-55
2022/02/25 06:45:51;;;;;;;18.45;12.07;;;;;;;;;;10250990;28;20391;-56
2022/02/25 06:50:50;;;;;;;15.68;13.40;;;;;;;;;;10263931;28;20076;-55
2022/02/25 06:55:48;;;;;;;14.35;11.93;;;;;;;;;;10256921;28;20132;-52
2022/02/25 07:00:48;;;;;;;25.95;18.45;;;;;;;;;;10272863;28;20084;-57
2022/02/25 07:05:46;;;;;;;23.58;13.85;;;;;;;;;;10267608;28;20049;-57
2022/02/25 07:10:44;;;;;;;18.05;13.80;;;;;;;;;;10261515;28;20084;-58
2022/02/25 07:15:45;;;;;;;17.30;12.77;;;;;;;;;;10266074;28;20076;-58
2022/02/25 07:20:45;;;;;;;22.20;18.48;;;;;;;;;;10261317;28;20072;-55
2022/02/25 07:25:43;;;;;;;18.50;12.75;;;;;;;;;;10263605;28;20078;-52
2022/02/25 07:30:42;;;;;;;23.75;15.98;;;;;;;;;;10268071;28;20065;-54
2022/02/25 07:35:40;;;;;;;27.88;17.13;;;;;;;;;;10263994;28;20076;-56
2022/02/25 07:40:40;;;;;;;25.00;16.60;;;;;;;;;;10270621;28;20482;-54
2022/02/25 07:45:38;;;;;;;23.48;15.88;;;;;;;;;;10275889;28;20079;-55
2022/02/25 07:50:37;;;;;;;18.73;14.95;;;;;;;;;;10275521;28;20072;-55
2022/02/25 07:55:35;;;;;;;35.05;20.20;;;;;;;;;;10275106;28;20073;-56
2022/02/25 08:00:35;;;;;;;29.00;16.33;;;;;;;;;;10271935;28;20084;-54
2022/02/25 08:05:34;;;;;;;26.95;17.65;;;;;;;;;;10276668;28;20072;-54
2022/02/25 08:10:32;;;;;;;94.97;58.17;;;;;;;;;;10278800;28;20506;-57
2022/02/25 08:15:34;;;;;;;71.15;48.20;;;;;;;;;;10273649;28;20071;-54
2022/02/25 08:20:34;;;;;;;69.07;42.60;;;;;;;;;;10272931;28;20080;-56
2022/02/25 08:25:33;;;;;;;30.30;21.63;;;;;;;;;;10272197;28;20098;-55
2022/02/25 08:30:32;;;;;;;30.00;19.02;;;;;;;;;;10272657;28;20107;-56
2022/02/25 08:35:31;;;;;;;33.65;23.60;;;;;;;;;;10272306;28;20072;-55
2022/02/25 08:40:31;;;;;;;20.33;14.18;;;;;;;;;;10277794;28;20129;-55
2022/02/25 08:45:30;;;;;;;18.55;14.65;;;;;;;;;;10277517;28;20502;-56
2022/02/25 08:50:28;;;;;;;22.05;14.52;;;;;;;;;;10277093;28;20087;-56
2022/02/25 08:55:26;;;;;;;19.40;13.43;;;;;;;;;;10270471;28;20075;-56
2022/02/25 09:00:26;;;;;;;22.63;15.55;;;;;;;;;;10269917;28;20073;-54
2022/02/25 09:05:25;;;;;;;15.98;12.07;;;;;;;;;;10267492;28;20483;-55
2022/02/25 09:10:24;;;;;;;12.65;11.07;;;;;;;;;;10270350;28;20072;-56
2022/02/25 09:15:25;;;;;;;15.95;11.80;;;;;;;;;;10275962;28;20075;-56
2022/02/25 09:20:27;;;;;;;14.38;9.60;;;;;;;;;;10269076;28;20076;-53
2022/02/25 09:25:26;;;;;;;10.80;9.70;;;;;;;;;;10275944;28;20088;-52
2022/02/25 09:30:25;;;;;;;22.48;16.38;;;;;;;;;;10275854;28;20087;-53
2022/02/25 09:35:23;;;;;;;13.50;9.65;;;;;;;;;;10275477;28;20064;-55
2022/02/25 09:40:24;;;;;;;15.40;10.75;;;;;;;;;;10275458;28;20064;-56
2022/02/25 09:45:22;;;;;;;13.15;9.13;;;;;;;;;;10267717;28;20095;-56
2022/02/25 09:50:24;;;;;;;16.02;11.88;;;;;;;;;;10273858;28;20080;-54
2022/02/25 09:55:26;;;;;;;18.92;12.30;;;;;;;;;;10274968;28;20076;-55
2022/02/25 10:00:25;;;;;;;26.67;18.13;;;;;;;;;;10268472;28;20080;-56
2022/02/25 10:05:27;;;;;;;18.83;14.77;;;;;;;;;;10267774;28;20075;-56
2022/02/25 10:10:28;;;;;;;15.27;12.50;;;;;;;;;;10269540;28;20086;-54
2022/02/25 10:15:28;;;;;;;16.92;12.23;;;;;;;;;;10274223;28;20084;-55
2022/02/25 10:20:29;;;;;;;39.10;21.25;;;;;;;;;;10273186;28;20065;-57
2022/02/25 10:25:42;;;;;;;64.95;27.80;;;;;;;;;;10273717;28;20049;-58
2022/02/25 10:30:41;;;;;;;25.33;16.00;;;;;;;;;;10265248;28;20076;-55
2022/02/25 10:35:40;;;;;;;24.67;19.25;;;;;;;;;;10268631;28;20075;-56
2022/02/25 10:40:41;;;;;;;55.97;28.35;;;;;;;;;;10273799;28;20064;-57
2022/02/25 10:45:42;;;;;;;21.95;16.88;;;;;;;;;;10269040;28;20048;-55
2022/02/25 10:50:45;;;;;;;16.60;12.23;;;;;;;;;;10268143;28;20079;-54
2022/02/25 10:55:44;;;;;;;14.95;11.07;;;;;;;;;;10268650;28;20076;-56
2022/02/25 11:00:44;;;;;;;28.08;17.80;;;;;;;;;;10268520;28;20072;-57
2022/02/25 11:05:42;;;;;;;22.55;17.30;;;;;;;;;;10263124;28;20152;-57
2022/02/25 11:10:41;;;;;;;15.70;11.13;;;;;;;;;;10273283;28;20081;-57
2022/02/25 11:15:42;;;;;;;24.70;17.48;;;;;;;;;;10273272;28;20403;-56
2022/02/25 11:20:43;;;;;;;44.08;24.05;;;;;;;;;;10271976;28;20087;-57
2022/02/25 11:25:43;;;;;;;14.57;9.18;;;;;;;;;;10265270;28;20077;-55
2022/02/25 11:30:45;;;;;;;21.33;10.95;;;;;;;;;;10273483;28;20115;-57
2022/02/25 11:35:52;;;;;;;12.25;8.50;;;;;;;;;;10273010;28;20049;-57
2022/02/25 11:40:55;;;;;;;12.00;9.13;;;;;;;;;;10272501;28;20076;-57
2022/02/25 11:45:54;;;;;;;9.77;6.63;;;;;;;;;;10272358;28;20091;-56
2022/02/25 11:50:56;;;;;;;19.02;12.38;;;;;;;;;;10274926;28;20044;-57
2022/02/25 11:55:54;;;;;;;19.85;12.32;;;;;;;;;;10273535;28;20091;-57
2022/02/25 12:01:05;;;;;;;34.78;20.25;;;;;;;;;;10278506;28;20069;-57
2022/02/25 12:06:05;;;;;;;13.82;11.40;;;;;;;;;;10278471;28;20076;-57
2022/02/25 12:11:22;;;;;;;9.88;7.75;;;;;;;;;;10273853;28;20091;-57
2022/02/25 12:16:24;;;;;;;14.18;9.73;;;;;;;;;;10277779;28;20041;-56
2022/02/25 12:21:38;;;;;;;12.13;8.88;;;;;;;;;;10278664;28;20072;-56
2022/02/25 12:26:38;;;;;;;12.13;8.70;;;;;;;;;;10272056;28;20461;-57
2022/02/25 12:31:42;;;;;;;10.57;7.55;;;;;;;;;;10274852;28;20079;-56
2022/02/25 12:36:45;;;;;;;8.73;7.18;;;;;;;;;;10276898;28;20041;-55
2022/02/25 12:41:46;;;;;;;11.95;9.55;;;;;;;;;;10277952;28;20087;-56
2022/02/25 12:46:45;;;;;;;11.65;9.13;;;;;;;;;;10272689;28;20072;-57
2022/02/25 12:51:46;;;;;;;11.43;7.28;;;;;;;;;;10274321;28;20073;-56
2022/02/25 12:56:51;;;;;;;6.60;5.90;;;;;;;;;;10277771;28;20077;-56
2022/02/25 13:01:50;;;;;;;11.20;7.45;;;;;;;;;;10271583;28;20068;-58
2022/02/25 13:06:50;;;;;;;10.77;6.57;;;;;;;;;;10297663;28;20068;-55
2022/02/25 13:11:50;;;;;;;7.05;5.93;;;;;;;;;;10315528;28;20091;-57
2022/02/25 13:16:58;;;;;;;9.15;6.60;;;;;;;;;;10315302;28;20044;-57
2022/02/25 13:22:06;;;;;;;6.20;4.63;;;;;;;;;;10301175;28;20096;-57
2022/02/25 13:27:08;;;;;;;6.82;5.22;;;;;;;;;;10281974;28;20092;-56
2022/02/25 13:32:08;;;;;;;11.23;8.93;;;;;;;;;;10271356;28;20080;-56
2022/02/25 13:37:13;;;;;;;13.52;10.23;;;;;;;;;;10270256;28;20522;-57
2022/02/25 13:42:12;;;;;;;9.15;6.40;;;;;;;;;;10289218;28;20068;-56
2022/02/25 13:52:35;;;;;;;10.70;7.35;;;;;;;;;;10251595;28;20076;-56
2022/02/25 13:57:34;;;;;;;10.68;8.38;;;;;;;;;;10266024;28;20275;-53
2022/02/25 14:02:34;;;;;;;10.25;6.93;;;;;;;;;;10277698;28;20475;-53
2022/02/25 14:07:36;;;;;;;13.18;8.85;;;;;;;;;;10267810;28;20083;-57
2022/02/25 14:12:44;;;;;;;8.38;6.40;;;;;;;;;;10262602;28;20073;-57
2022/02/25 14:17:43;;;;;;;9.45;7.47;;;;;;;;;;10245126;28;20447;-57
2022/02/25 14:22:45;;;;;;;7.30;5.78;;;;;;;;;;10255432;28;20064;-57
2022/02/25 14:27:59;;;;;;;13.70;8.43;;;;;;;;;;10249892;28;20475;-57
2022/02/25 14:33:03;;;;;;;11.45;8.18;;;;;;;;;;10258091;28;20084;-55
2022/02/25 14:38:03;;;;;;;7.50;5.63;;;;;;;;;;10264336;28;20075;-56
2022/02/25 14:43:01;;;;;;;13.63;9.48;;;;;;;;;;10248708;28;20076;-58
2022/02/25 14:48:00;;;;;;;12.18;9.10;;;;;;;;;;10260245;28;20079;-58
2022/02/25 14:52:58;;;;;;;15.75;11.10;;;;;;;;;;10266670;28;20068;-58
2022/02/25 14:57:58;;;;;;;18.58;11.07;;;;;;;;;;10261484;28;20095;-57
2022/02/25 15:03:00;;;;;;;19.65;13.65;;;;;;;;;;10258676;28;20064;-56
2022/02/25 15:07:59;;;;;;;66.43;35.92;;;;;;;;;;10264014;28;20069;-56
2022/02/25 15:13:00;;;;;;;15.43;11.60;;;;;;;;;;10269931;28;20073;-57
2022/02/25 15:17:59;;;;;;;35.67;28.95;;;;;;;;;;10270437;28;20102;-55
2022/02/25 15:22:57;;;;;;;15.05;10.35;;;;;;;;;;10269797;28;20068;-55
2022/02/25 15:27:55;;;;;;;25.70;15.57;;;;;;;;;;10266266;28;20073;-56
2022/02/25 15:33:01;;;;;;;24.60;19.33;;;;;;;;;;10270942;28;20084;-58
2022/02/25 15:37:59;;;;;;;19.08;14.07;;;;;;;;;;10274946;28;20414;-54
2022/02/25 15:42:57;;;;;;;21.05;15.57;;;;;;;;;;10264661;28;20068;-55
2022/02/25 15:48:17;;;;;;;23.52;14.82;;;;;;;;;;10277150;28;20084;-56
2022/02/25 15:53:16;;;;;;;36.50;25.35;;;;;;;;;;10267661;28;20065;-56
2022/02/25 15:58:15;;;;;;;61.97;42.20;;;;;;;;;;10261097;28;20061;-52
2022/02/25 16:03:13;;;;;;;81.45;49.25;;;;;;;;;;10270720;28;20494;-57
2022/02/25 16:08:13;;;;;;;104.82;62.05;;;;;;;;;;10271677;28;20083;-57
2022/02/25 16:13:12;;;;;;;134.93;79.93;;;;;;;;;;10261992;28;20079;-56
2022/02/25 16:18:10;;;;;;;118.90;70.40;;;;;;;;;;10269171;28;20071;-57
2022/02/25 16:23:09;;;;;;;71.65;50.55;;;;;;;;;;10265381;28;20091;-57
2022/02/25 16:28:09;;;;;;;78.35;51.80;;;;;;;;;;10266270;28;20069;-58
2022/02/25 16:33:07;;;;;;;51.63;33.65;;;;;;;;;;10268910;28;20080;-54
2022/02/25 16:38:05;;;;;;;52.63;36.30;;;;;;;;;;10255708;28;20521;-57
2022/02/25 16:43:05;;;;;;;41.15;29.40;;;;;;;;;;10259069;28;20065;-58
2022/02/25 16:48:06;;;;;;;22.40;18.02;;;;;;;;;;10262450;28;20080;-56
2022/02/25 16:53:04;;;;;;;57.00;40.88;;;;;;;;;;10252235;28;20458;-57
2022/02/25 16:58:05;;;;;;;93.47;60.30;;;;;;;;;;10265482;28;20470;-58
2022/02/25 17:03:04;;;;;;;158.60;97.95;;;;;;;;;;10266733;28;20091;-58
2022/02/25 17:08:03;;;;;;;139.27;89.15;;;;;;;;;;10275154;28;20521;-57
2022/02/25 17:13:03;;;;;;;76.28;50.20;;;;;;;;;;10260996;28;20067;-56
2022/02/25 17:18:01;;;;;;;24.65;19.75;;;;;;;;;;10252612;28;20068;-56
2022/02/25 17:23:01;;;;;;;14.05;10.55;;;;;;;;;;10261225;28;20060;-55
2022/02/25 17:27:59;;;;;;;12.93;7.22;;;;;;;;;;10260752;28;20080;-57
2022/02/25 17:32:58;;;;;;;24.10;15.65;;;;;;;;;;10272564;28;20084;-57
2022/02/25 17:37:56;;;;;;;14.60;9.52;;;;;;;;;;10263298;28;20345;-54
2022/02/25 17:42:59;;;;;;;15.40;11.32;;;;;;;;;;10249078;28;20067;-56
2022/02/25 17:47:59;;;;;;;26.42;13.23;;;;;;;;;;10266770;28;20076;-58
2022/02/25 17:52:58;;;;;;;18.48;11.63;;;;;;;;;;10264681;28;20084;-58
2022/02/25 17:57:56;;;;;;;23.75;15.00;;;;;;;;;;10259107;28;20076;-55
2022/02/25 18:02:56;;;;;;;19.52;13.00;;;;;;;;;;10261666;28;20068;-57
2022/02/25 18:07:55;;;;;;;14.82;8.98;;;;;;;;;;10255896;28;20487;-54
2022/02/25 18:12:53;;;;;;;8.25;6.68;;;;;;;;;;10265839;28;20072;-56
2022/02/25 18:17:51;;;;;;;8.65;7.20;;;;;;;;;;10265352;28;20072;-56
2022/02/25 18:22:51;;;;;;;7.57;6.57;;;;;;;;;;10262753;28;20079;-55
2022/02/25 18:27:49;;;;;;;8.00;6.38;;;;;;;;;;10268366;28;20075;-55
2022/02/25 18:32:48;;;;;;;20.80;12.68;;;;;;;;;;10260208;28;20125;-55
2022/02/25 18:37:48;;;;;;;33.83;18.38;;;;;;;;;;10279835;28;20547;-56
2022/02/25 18:42:48;;;;;;;12.32;10.23;;;;;;;;;;10265240;28;20064;-53
2022/02/25 18:47:48;;;;;;;12.02;10.50;;;;;;;;;;10274198;28;20049;-54
2022/02/25 18:52:46;;;;;;;42.55;20.90;;;;;;;;;;10270939;28;20509;-56
2022/02/25 18:57:45;;;;;;;13.23;9.85;;;;;;;;;;10280361;28;20072;-57
2022/02/25 19:02:45;;;;;;;9.60;7.63;;;;;;;;;;10280360;28;20498;-58
2022/02/25 19:07:44;;;;;;;11.77;8.85;;;;;;;;;;10280214;28;20080;-57
2022/02/25 19:12:42;;;;;;;13.75;7.50;;;;;;;;;;10280147;28;20080;-57
2022/02/25 19:17:44;;;;;;;18.15;15.27;;;;;;;;;;10272330;28;20473;-56
2022/02/25 19:22:48;;;;;;;9.70;8.70;;;;;;;;;;10284235;28;20073;-57
2022/02/25 19:27:46;;;;;;;10.07;8.57;;;;;;;;;;10270997;28;20081;-56
2022/02/25 19:32:46;;;;;;;14.40;9.93;;;;;;;;;;10271120;28;20478;-56
2022/02/25 19:37:44;;;;;;;21.02;14.80;;;;;;;;;;10275776;28;20068;-56
2022/02/25 19:42:43;;;;;;;13.52;10.30;;;;;;;;;;10261255;28;20470;-49
2022/02/25 19:47:42;;;;;;;17.60;15.30;;;;;;;;;;10270031;28;20072;-56
2022/02/25 19:52:42;;;;;;;13.13;10.65;;;;;;;;;;10262849;28;20624;-54
2022/02/25 19:57:40;;;;;;;10.38;8.52;;;;;;;;;;10265166;28;20064;-57
2022/02/25 20:02:39;;;;;;;12.68;9.80;;;;;;;;;;10250780;28;20081;-54
2022/02/25 20:07:38;;;;;;;9.52;7.32;;;;;;;;;;10272010;28;20069;-56
2022/02/25 20:12:37;;;;;;;11.77;7.38;;;;;;;;;;10268617;28;20069;-55
2022/02/25 20:17:36;;;;;;;11.48;8.65;;;;;;;;;;10248877;28;20073;-53
2022/02/25 20:22:34;;;;;;;8.70;7.28;;;;;;;;;;10262757;28;20072;-57
2022/02/25 20:27:33;;;;;;;10.13;7.68;;;;;;;;;;10262110;28;20081;-57
2022/02/25 20:32:32;;;;;;;10.57;7.50;;;;;;;;;;10259110;28;20077;-57
2022/02/25 20:37:31;;;;;;;10.10;7.00;;;;;;;;;;10265606;28;20148;-56
2022/02/25 20:42:30;;;;;;;10.25;7.60;;;;;;;;;;10264794;28;20076;-56
2022/02/25 20:47:28;;;;;;;8.82;7.05;;;;;;;;;;10255724;28;20093;-56
2022/02/25 20:52:30;;;;;;;9.07;6.90;;;;;;;;;;10264076;28;20056;-51
2022/02/25 20:57:28;;;;;;;9.07;6.82;;;;;;;;;;10270567;28;20076;-56
2022/02/25 21:02:26;;;;;;;10.07;7.15;;;;;;;;;;10272303;28;20065;-56
2022/02/25 21:07:25;;;;;;;19.55;12.52;;;;;;;;;;10262731;28;20462;-49
2022/02/25 21:12:25;;;;;;;9.45;7.13;;;;;;;;;;10258727;28;20084;-50
2022/02/25 21:17:23;;;;;;;11.00;9.75;;;;;;;;;;10255028;28;20076;-52
2022/02/25 21:22:21;;;;;;;9.55;7.93;;;;;;;;;;10261558;28;20073;-57
2022/02/25 21:27:20;;;;;;;8.65;7.45;;;;;;;;;;10253916;28;20144;-56
2022/02/25 21:32:19;;;;;;;7.63;6.72;;;;;;;;;;10258285;28;20080;-54
2022/02/25 21:37:18;;;;;;;25.85;15.85;;;;;;;;;;10258465;28;20108;-56
2022/02/25 21:42:16;;;;;;;10.38;7.88;;;;;;;;;;10254927;28;20109;-56
2022/02/25 21:47:14;;;;;;;14.63;13.10;;;;;;;;;;10252653;28;20068;-56
2022/02/25 21:52:14;;;;;;;11.93;10.73;;;;;;;;;;10253786;28;20166;-55
2022/02/25 21:57:12;;;;;;;7.93;6.45;;;;;;;;;;10257241;28;20061;-56
2022/02/25 22:02:11;;;;;;;11.02;8.43;;;;;;;;;;10272287;28;20495;-55
2022/02/25 22:07:09;;;;;;;8.60;7.50;;;;;;;;;;10262772;28;20067;-55
2022/02/25 22:12:09;;;;;;;10.75;7.63;;;;;;;;;;10247722;28;20489;-54
2022/02/25 22:17:08;;;;;;;8.45;6.75;;;;;;;;;;10260047;28;20068;-57
2022/02/25 22:22:06;;;;;;;7.32;6.03;;;;;;;;;;10253016;28;20076;-55
2022/02/25 22:27:04;;;;;;;6.40;5.80;;;;;;;;;;10262930;28;20087;-56
2022/02/25 22:32:04;;;;;;;11.93;10.75;;;;;;;;;;10251010;28;20096;-55
2022/02/25 22:37:03;;;;;;;9.75;7.13;;;;;;;;;;10243999;28;20068;-56
2022/02/25 22:42:01;;;;;;;10.90;7.82;;;;;;;;;;10248082;28;20353;-54
2022/02/25 22:46:59;;;;;;;9.07;7.03;;;;;;;;;;10241679;28;20077;-54
2022/02/25 23:02:31;;;;;;;9.63;7.05;;;;;;;;;;10261547;28;20085;-54
2022/02/25 23:07:31;;;;;;;7.38;6.57;;;;;;;;;;10274016;28;20076;-55
2022/02/25 23:12:30;;;;;;;17.98;11.07;;;;;;;;;;10262635;28;20081;-55
2022/02/25 23:17:28;;;;;;;7.88;6.97;;;;;;;;;;10279718;28;20117;-56
2022/02/25 23:22:27;;;;;;;8.48;6.32;;;;;;;;;;10269345;28;20118;-56
2022/02/25 23:27:26;;;;;;;8.13;6.63;;;;;;;;;;10271605;28;20072;-56
2022/02/25 23:32:25;;;;;;;7.10;6.40;;;;;;;;;;10267517;28;20073;-55
2022/02/25 23:37:23;;;;;;;6.43;5.70;;;;;;;;;;10273847;28;20451;-55
2022/02/25 23:42:22;;;;;;;59.22;30.92;;;;;;;;;;10275193;28;20075;-54
2022/02/25 23:47:21;;;;;;;10.98;9.57;;;;;;;;;;10288936;28;20561;-56
2022/02/25 23:52:20;;;;;;;7.93;7.05;;;;;;;;;;10270824;28;20081;-58
2022/02/25 23:57:18;;;;;;;21.20;13.45;;;;;;;;;;10280931;28;20068;-56
